createdAt,value
2022-10-29T00:00:15.425Z,13.43
2022-10-29T00:02:42.086Z,13.95
2022-10-29T00:05:09.274Z,15.55
2022-10-29T00:07:35.619Z,14.57
2022-10-29T00:10:02.228Z,16.58
2022-10-29T00:12:28.638Z,15.82
2022-10-29T00:14:55.416Z,14.10
2022-10-29T00:17:21.870Z,14.23
2022-10-29T00:19:48.954Z,16.50
2022-10-29T00:22:15.584Z,15.93
2022-10-29T00:24:42.058Z,15.52
2022-10-29T00:27:08.484Z,15.02
2022-10-29T00:29:34.932Z,15.27
2022-10-29T00:32:01.362Z,15.75
2022-10-29T00:34:27.804Z,16.05
2022-10-29T00:36:54.206Z,15.80
2022-10-29T00:39:20.634Z,14.52
2022-10-29T00:41:47.311Z,17.55
2022-10-29T00:44:22.640Z,17.35
2022-10-29T00:47:31.608Z,17.70
2022-10-29T00:50:03.877Z,18.15
2022-10-29T00:52:32.274Z,16.20
2022-10-29T00:55:01.140Z,16.90
2022-10-29T00:57:30.841Z,18.33
2022-10-29T00:59:57.393Z,15.43
2022-10-29T01:02:24.415Z,17.13
2022-10-29T01:04:52.361Z,16.42
2022-10-29T01:07:20.525Z,16.33
2022-10-29T01:09:47.106Z,17.80
2022-10-29T01:12:38.335Z,17.33
2022-10-29T01:15:10.699Z,17.25
2022-10-29T01:18:14.551Z,17.02
2022-10-29T01:21:18.349Z,15.88
2022-10-29T01:24:09.214Z,18.83
2022-10-29T01:26:47.911Z,17.23
2022-10-29T01:29:48.325Z,18.73
2022-10-29T01:32:18.506Z,16.88
2022-10-29T01:35:10.262Z,17.50
2022-10-29T01:37:39.636Z,17.10
2022-10-29T01:40:22.043Z,17.42
2022-10-29T01:43:03.904Z,18.13
2022-10-29T01:45:37.174Z,17.75
2022-10-29T01:48:12.987Z,18.17
2022-10-29T01:50:40.540Z,16.42
2022-10-29T01:53:07.331Z,18.60
2022-10-29T01:55:37.064Z,17.00
2022-10-29T01:58:04.791Z,15.63
2022-10-29T02:00:55.318Z,17.80
2022-10-29T02:04:06.862Z,18.20
2022-10-29T02:06:43.798Z,16.90
2022-10-29T02:09:34.994Z,17.08
2022-10-29T02:14:38.845Z,16.52
2022-10-29T02:17:06.284Z,17.48
2022-10-29T02:19:34.041Z,18.58
2022-10-29T02:22:00.438Z,17.55
2022-10-29T02:24:26.827Z,17.50
2022-10-29T02:26:53.312Z,17.00
2022-10-29T02:29:19.730Z,17.63
2022-10-29T02:31:46.114Z,19.23
2022-10-29T02:34:12.705Z,18.33
2022-10-29T02:36:39.160Z,17.27
2022-10-29T02:39:05.581Z,17.70
2022-10-29T02:41:31.985Z,17.33
2022-10-29T02:43:58.386Z,17.35
2022-10-29T02:46:24.953Z,17.38
2022-10-29T02:48:51.404Z,17.27
2022-10-29T02:51:18.277Z,17.33
2022-10-29T02:53:44.679Z,18.80
2022-10-29T02:56:11.165Z,18.90
2022-10-29T02:58:38.810Z,18.35
2022-10-29T03:01:06.837Z,17.73
2022-10-29T03:03:33.349Z,17.63
2022-10-29T03:05:59.815Z,17.90
2022-10-29T03:08:26.224Z,17.85
2022-10-29T03:10:52.612Z,17.77
2022-10-29T03:13:19.077Z,18.20
2022-10-29T03:15:45.806Z,16.55
2022-10-29T03:18:12.561Z,18.33
2022-10-29T03:20:39.030Z,17.92
2022-10-29T03:23:05.541Z,19.38
2022-10-29T03:25:32.075Z,17.67
2022-10-29T03:27:58.944Z,18.83
2022-10-29T03:30:25.505Z,17.60
2022-10-29T03:32:51.889Z,17.23
2022-10-29T03:35:18.317Z,17.08
2022-10-29T03:37:44.740Z,19.20
2022-10-29T03:40:11.168Z,20.08
2022-10-29T03:42:38.732Z,17.48
2022-10-29T03:45:06.634Z,18.88
2022-10-29T03:47:33.266Z,17.88
2022-10-29T03:49:59.655Z,18.02
2022-10-29T03:52:26.039Z,19.27
2022-10-29T03:54:52.414Z,17.45
2022-10-29T03:57:18.969Z,18.35
2022-10-29T03:59:48.363Z,18.90
2022-10-29T04:04:43.125Z,17.33
2022-10-29T04:07:09.661Z,18.95
2022-10-29T04:09:36.088Z,17.30
2022-10-29T04:12:02.840Z,18.33
2022-10-29T04:14:29.285Z,18.33
2022-10-29T04:16:55.801Z,20.33
2022-10-29T04:19:22.221Z,18.98
2022-10-29T04:30:08.607Z,19.85
2022-10-29T04:32:35.024Z,17.85
2022-10-29T04:35:01.581Z,18.58
2022-10-29T04:37:29.494Z,16.30
2022-10-29T04:39:55.956Z,17.60
2022-10-29T04:42:22.376Z,17.48
2022-10-29T04:44:48.783Z,16.80
2022-10-29T04:47:15.167Z,15.55
2022-10-29T04:49:41.538Z,18.17
2022-10-29T04:52:08.095Z,18.08
2022-10-29T04:54:34.450Z,16.85
2022-10-29T04:57:00.823Z,16.45
2022-10-29T04:59:27.367Z,19.33
2022-10-29T05:01:53.784Z,17.40
2022-10-29T05:04:20.220Z,17.77
2022-10-29T05:06:46.628Z,19.15
2022-10-29T05:09:13.010Z,18.92
2022-10-29T05:11:39.388Z,20.17
2022-10-29T05:14:05.910Z,18.88
2022-10-29T05:16:32.787Z,19.17
2022-10-29T05:18:59.208Z,17.42
2022-10-29T05:21:25.633Z,18.15
2022-10-29T05:23:52.029Z,17.20
2022-10-29T05:26:18.414Z,17.48
2022-10-29T05:28:44.888Z,18.42
2022-10-29T05:31:11.259Z,15.88
2022-10-29T05:33:37.727Z,18.00
2022-10-29T05:36:04.501Z,17.27
2022-10-29T05:38:32.019Z,17.40
2022-10-29T05:40:59.096Z,16.90
2022-10-29T05:43:25.517Z,16.45
2022-10-29T05:45:51.951Z,19.50
2022-10-29T05:48:18.372Z,17.58
2022-10-29T05:50:44.835Z,18.60
2022-10-29T05:53:12.911Z,16.88
2022-10-29T05:55:40.014Z,19.40
2022-10-29T05:58:10.256Z,17.75
2022-10-29T06:00:38.723Z,18.27
2022-10-29T06:03:12.372Z,17.58
2022-10-29T06:05:41.702Z,18.23
2022-10-29T06:08:08.943Z,19.35
2022-10-29T06:10:35.802Z,18.25
2022-10-29T06:13:02.280Z,18.75
2022-10-29T06:15:28.715Z,19.20
2022-10-29T06:17:55.587Z,18.65
2022-10-29T06:20:22.234Z,21.38
2022-10-29T06:22:57.108Z,18.27
2022-10-29T06:25:24.768Z,17.70
2022-10-29T06:28:05.953Z,17.77
2022-10-29T06:30:33.797Z,17.13
2022-10-29T06:33:00.923Z,17.75
2022-10-29T06:35:27.620Z,17.38
2022-10-29T06:37:54.687Z,16.58
2022-10-29T06:40:21.808Z,17.08
2022-10-29T06:42:48.559Z,18.08
2022-10-29T06:45:15.264Z,18.85
2022-10-29T06:47:43.112Z,18.20
2022-10-29T06:50:10.927Z,20.85
2022-10-29T06:52:37.640Z,19.08
2022-10-29T06:55:05.721Z,18.55
2022-10-29T06:57:32.516Z,19.52
2022-10-29T07:00:05.463Z,18.77
2022-10-29T07:02:36.036Z,18.40
2022-10-29T07:05:02.584Z,19.15
2022-10-29T07:07:29.287Z,18.77
2022-10-29T07:09:55.818Z,17.30
2022-10-29T07:12:22.436Z,18.52
2022-10-29T07:14:48.913Z,18.65
2022-10-29T07:17:15.662Z,20.48
2022-10-29T07:19:42.161Z,15.88
2022-10-29T07:22:08.661Z,17.63
2022-10-29T07:24:37.270Z,17.45
2022-10-29T07:27:06.636Z,17.42
2022-10-29T07:29:33.156Z,16.20
2022-10-29T07:31:59.852Z,16.73
2022-10-29T07:34:26.416Z,16.10
2022-10-29T07:36:53.991Z,16.95
2022-10-29T07:39:20.576Z,16.77
2022-10-29T07:41:47.145Z,16.55
2022-10-29T07:44:13.733Z,17.20
2022-10-29T07:46:42.284Z,15.40
2022-10-29T07:49:08.751Z,15.13
2022-10-29T07:51:35.160Z,15.05
2022-10-29T07:54:01.688Z,15.30
2022-10-29T07:56:28.273Z,14.55
2022-10-29T07:58:54.740Z,15.65
2022-10-29T08:01:22.185Z,15.18
2022-10-29T08:03:52.017Z,14.13
2022-10-29T08:06:18.749Z,13.82
2022-10-29T08:08:46.171Z,14.73
2022-10-29T08:11:12.736Z,13.95
2022-10-29T08:13:39.210Z,13.85
2022-10-29T08:16:06.143Z,13.30
2022-10-29T08:18:32.586Z,13.13
2022-10-29T08:20:59.040Z,13.50
2022-10-29T08:23:26.853Z,13.18
2022-10-29T08:25:53.681Z,13.10
2022-10-29T08:28:23.999Z,14.63
2022-10-29T08:30:52.092Z,13.57
2022-10-29T08:33:19.723Z,13.43
2022-10-29T08:35:47.755Z,13.30
2022-10-29T08:38:14.465Z,14.13
2022-10-29T08:41:08.709Z,13.05
2022-10-29T08:44:32.649Z,14.73
2022-10-29T08:47:20.741Z,12.30
2022-10-29T08:50:09.720Z,13.23
2022-10-29T08:52:38.013Z,11.73
2022-10-29T08:55:12.696Z,11.65
2022-10-29T08:57:45.275Z,12.73
2022-10-29T09:00:23.506Z,11.73
2022-10-29T09:02:58.787Z,12.10
2022-10-29T09:05:33.166Z,10.30
2022-10-29T09:08:07.203Z,10.95
2022-10-29T09:10:43.724Z,11.48
2022-10-29T09:13:25.464Z,10.68
2022-10-29T09:16:01.129Z,10.60
2022-10-29T09:18:30.516Z,9.55
2022-10-29T09:21:12.066Z,10.63
2022-10-29T09:23:53.714Z,9.75
2022-10-29T09:26:31.977Z,10.93
2022-10-29T09:29:18.910Z,10.45
2022-10-29T09:31:49.225Z,9.52
2022-10-29T09:34:23.308Z,9.50
2022-10-29T09:36:49.715Z,9.75
2022-10-29T09:39:33.924Z,9.30
2022-10-29T09:42:02.754Z,8.88
2022-10-29T09:44:51.492Z,8.63
2022-10-29T09:47:23.800Z,8.85
2022-10-29T09:49:55.457Z,9.25
2022-10-29T09:52:28.371Z,10.43
2022-10-29T09:54:55.214Z,7.88
2022-10-29T09:57:24.125Z,8.23
2022-10-29T09:59:55.900Z,8.90
2022-10-29T10:02:42.911Z,8.52
2022-10-29T10:05:13.159Z,8.95
2022-10-29T10:07:40.191Z,9.00
2022-10-29T10:10:08.400Z,8.15
2022-10-29T10:12:37.695Z,8.60
2022-10-29T10:15:07.507Z,7.68
2022-10-29T10:17:56.719Z,7.68
2022-10-29T10:20:41.881Z,6.97
2022-10-29T10:23:45.446Z,7.30
2022-10-29T10:26:34.763Z,8.90
2022-10-29T10:29:04.123Z,8.10
2022-10-29T10:31:30.699Z,8.45
2022-10-29T10:33:59.242Z,8.40
2022-10-29T10:36:26.741Z,9.18
2022-10-29T10:38:57.058Z,8.27
2022-10-29T10:41:29.378Z,8.35
2022-10-29T10:44:00.590Z,8.05
2022-10-29T10:46:32.078Z,7.53
2022-10-29T10:49:37.099Z,7.50
2022-10-29T10:52:16.221Z,7.57
2022-10-29T10:54:47.501Z,7.50
2022-10-29T10:57:14.690Z,7.22
2022-10-29T10:59:43.944Z,8.73
2022-10-29T11:02:19.339Z,8.15
2022-10-29T11:04:47.353Z,8.85
2022-10-29T11:07:14.573Z,7.90
2022-10-29T11:09:45.808Z,8.75
2022-10-29T11:12:48.531Z,7.07
2022-10-29T11:15:22.208Z,7.72
2022-10-29T11:18:00.755Z,7.88
2022-10-29T11:20:31.099Z,8.98
2022-10-29T11:23:23.065Z,7.63
2022-10-29T11:25:54.852Z,6.78
2022-10-29T11:28:27.846Z,7.57
2022-10-29T11:31:09.269Z,8.63
2022-10-29T11:33:44.367Z,6.57
2022-10-29T11:36:24.565Z,7.15
2022-10-29T11:38:55.617Z,7.22
2022-10-29T11:41:26.550Z,7.07
2022-10-29T11:43:53.177Z,7.50
2022-10-29T11:46:53.657Z,7.07
2022-10-29T11:49:26.177Z,7.10
2022-10-29T11:52:08.408Z,6.97
2022-10-29T11:54:59.658Z,6.85
2022-10-29T11:57:48.250Z,7.03
2022-10-29T12:00:19.544Z,7.85
2022-10-29T12:02:46.328Z,6.90
2022-10-29T12:05:20.088Z,6.97
2022-10-29T12:08:04.775Z,7.03
2022-10-29T12:10:38.864Z,6.80
2022-10-29T12:13:25.569Z,7.20
2022-10-29T12:15:57.877Z,6.43
2022-10-29T12:18:33.758Z,6.53
2022-10-29T12:21:07.246Z,7.50
2022-10-29T12:24:22.115Z,7.15
2022-10-29T12:27:00.680Z,7.00
2022-10-29T12:29:40.102Z,7.72
2022-10-29T12:32:11.213Z,7.00
2022-10-29T12:35:16.698Z,7.13
2022-10-29T12:37:49.304Z,7.03
2022-10-29T12:40:23.086Z,7.50
2022-10-29T12:42:50.337Z,6.57
2022-10-29T12:45:36.940Z,6.10
2022-10-29T12:48:27.077Z,8.10
2022-10-29T12:51:15.439Z,7.88
2022-10-29T12:53:46.999Z,6.47
2022-10-29T12:56:16.389Z,7.15
2022-10-29T12:58:57.095Z,6.40
2022-10-29T13:02:09.734Z,7.07
2022-10-29T13:04:31.176Z,8.00
2022-10-29T13:07:02.237Z,7.15
2022-10-29T13:09:41.072Z,7.60
2022-10-29T13:12:13.874Z,6.70
2022-10-29T13:14:57.615Z,8.05
2022-10-29T13:17:37.055Z,6.43
2022-10-29T13:20:28.310Z,7.22
2022-10-29T13:22:56.220Z,6.97
2022-10-29T13:25:32.906Z,6.47
2022-10-29T13:28:00.459Z,6.50
2022-10-29T13:30:28.476Z,6.50
2022-10-29T13:32:56.205Z,7.32
2022-10-29T13:35:22.845Z,6.40
2022-10-29T13:38:10.498Z,6.68
2022-10-29T13:40:41.327Z,6.18
2022-10-29T13:43:07.727Z,7.05
2022-10-29T13:45:34.790Z,8.23
2022-10-29T13:48:06.605Z,6.75
2022-10-29T13:50:36.719Z,6.95
2022-10-29T13:53:10.718Z,7.28
2022-10-29T13:55:44.384Z,7.25
2022-10-29T13:58:34.391Z,7.30
2022-10-29T14:01:03.220Z,6.57
2022-10-29T14:03:32.200Z,6.55
2022-10-29T14:06:21.030Z,6.68
2022-10-29T14:08:55.899Z,6.85
2022-10-29T14:11:28.608Z,6.90
2022-10-29T14:13:58.922Z,5.80
2022-10-29T14:16:31.192Z,6.50
2022-10-29T14:18:57.640Z,6.18
2022-10-29T14:21:31.179Z,6.82
2022-10-29T14:24:03.095Z,6.45
2022-10-29T14:26:33.825Z,5.88
2022-10-29T14:29:19.174Z,7.32
2022-10-29T14:31:46.750Z,6.68
2022-10-29T14:34:28.543Z,6.80
2022-10-29T14:37:07.380Z,5.97
2022-10-29T14:39:55.483Z,7.60
2022-10-29T14:42:33.211Z,6.35
2022-10-29T14:45:04.039Z,6.15
2022-10-29T14:50:18.883Z,6.80
2022-10-29T14:52:53.575Z,6.97
2022-10-29T14:55:26.261Z,6.47
2022-10-29T14:58:00.640Z,7.32
2022-10-29T15:00:32.113Z,6.78
2022-10-29T15:02:59.160Z,6.05
2022-10-29T15:05:29.362Z,7.40
2022-10-29T15:08:11.181Z,6.25
2022-10-29T15:11:04.224Z,6.97
2022-10-29T15:13:33.752Z,6.97
2022-10-29T15:16:10.068Z,6.90
2022-10-29T15:18:37.752Z,6.90
2022-10-29T15:21:04.977Z,7.20
2022-10-29T15:23:36.962Z,6.63
2022-10-29T15:26:17.639Z,8.73
2022-10-29T15:28:45.546Z,7.57
2022-10-29T15:31:31.337Z,8.15
2022-10-29T15:34:09.638Z,8.90
2022-10-29T15:36:51.051Z,10.60
2022-10-29T15:39:27.021Z,9.70
2022-10-29T15:41:59.063Z,9.60
2022-10-29T15:44:39.048Z,9.27
2022-10-29T15:47:21.976Z,10.23
2022-10-29T15:49:48.442Z,9.15
2022-10-29T15:52:17.781Z,9.07
2022-10-29T15:54:44.691Z,8.35
2022-10-29T15:57:13.584Z,9.02
2022-10-29T15:59:40.275Z,8.93
2022-10-29T16:02:18.006Z,9.38
2022-10-29T16:04:44.717Z,8.18
2022-10-29T16:07:15.640Z,9.73
2022-10-29T16:09:51.611Z,10.57
2022-10-29T16:12:18.303Z,9.18
2022-10-29T16:14:44.877Z,10.90
2022-10-29T16:17:17.275Z,9.80
2022-10-29T16:19:44.007Z,9.40
2022-10-29T16:22:16.280Z,9.35
2022-10-29T16:24:42.990Z,8.77
2022-10-29T16:27:18.559Z,8.30
2022-10-29T16:29:50.051Z,9.07
2022-10-29T16:32:18.440Z,8.77
2022-10-29T16:34:45.127Z,8.35
2022-10-29T16:37:15.169Z,9.13
2022-10-29T16:39:42.075Z,8.37
2022-10-29T16:42:23.530Z,7.70
2022-10-29T16:44:50.278Z,9.90
2022-10-29T16:47:18.012Z,9.25
2022-10-29T16:49:44.523Z,7.68
2022-10-29T16:52:10.969Z,7.68
2022-10-29T16:54:37.362Z,8.05
2022-10-29T16:57:03.748Z,7.95
2022-10-29T16:59:30.125Z,9.10
2022-10-29T17:01:56.616Z,8.20
2022-10-29T17:04:23.065Z,8.82
2022-10-29T17:06:49.488Z,7.22
2022-10-29T17:09:16.023Z,7.20
2022-10-29T17:11:42.561Z,7.57
2022-10-29T17:14:08.999Z,8.82
2022-10-29T17:19:07.146Z,8.55
2022-10-29T17:21:33.541Z,8.85
2022-10-29T17:24:05.108Z,7.40
2022-10-29T17:26:34.445Z,8.32
2022-10-29T17:29:00.896Z,8.07
2022-10-29T17:31:27.375Z,8.65
2022-10-29T17:33:53.881Z,9.40
2022-10-29T17:36:20.265Z,10.27
2022-10-29T17:38:46.792Z,8.77
2022-10-29T17:41:13.459Z,8.13
2022-10-29T17:43:39.896Z,8.40
2022-10-29T17:46:06.379Z,8.73
2022-10-29T17:48:32.998Z,8.43
2022-10-29T17:51:01.757Z,10.15
2022-10-29T17:53:29.396Z,8.95
2022-10-29T17:55:59.964Z,8.20
2022-10-29T17:58:26.689Z,8.45
2022-10-29T18:00:53.294Z,8.95
2022-10-29T18:03:19.899Z,8.40
2022-10-29T18:05:47.030Z,7.43
2022-10-29T18:08:13.625Z,8.38
2022-10-29T18:10:40.025Z,7.90
2022-10-29T18:13:06.498Z,8.13
2022-10-29T18:15:32.913Z,8.00
2022-10-29T18:18:00.554Z,8.13
2022-10-29T18:20:26.941Z,8.07
2022-10-29T18:22:55.908Z,7.80
2022-10-29T18:25:22.701Z,8.18
2022-10-29T18:27:49.141Z,7.90
2022-10-29T18:30:16.062Z,7.50
2022-10-29T18:32:42.506Z,8.85
2022-10-29T18:35:09.425Z,8.20
2022-10-29T18:37:35.829Z,7.20
2022-10-29T18:40:02.208Z,7.45
2022-10-29T18:42:29.834Z,7.00
2022-10-29T18:44:56.200Z,7.13
2022-10-29T18:47:22.801Z,9.10
2022-10-29T18:49:49.199Z,7.22
2022-10-29T18:52:15.615Z,7.68
2022-10-29T18:54:42.283Z,7.03
2022-10-29T18:57:08.803Z,7.43
2022-10-29T18:59:35.175Z,7.82
2022-10-29T19:02:01.876Z,7.78
2022-10-29T19:04:28.633Z,8.05
2022-10-29T19:06:55.102Z,7.65
2022-10-29T19:09:21.623Z,8.10
2022-10-29T19:11:53.922Z,7.18
2022-10-29T19:14:23.277Z,7.22
2022-10-29T19:16:49.659Z,6.50
2022-10-29T19:19:18.448Z,8.68
2022-10-29T19:21:47.831Z,7.03
2022-10-29T19:24:14.927Z,7.28
2022-10-29T19:26:41.972Z,7.30
2022-10-29T19:29:08.443Z,7.22
2022-10-29T19:31:35.954Z,6.75
2022-10-29T19:34:06.022Z,6.93
2022-10-29T19:36:33.120Z,7.72
2022-10-29T19:39:00.460Z,6.95
2022-10-29T19:41:27.217Z,7.95
2022-10-29T19:43:53.742Z,6.28
2022-10-29T19:46:24.404Z,5.93
2022-10-29T19:51:18.434Z,7.85
2022-10-29T19:53:44.930Z,9.52
2022-10-29T19:56:13.297Z,7.75
2022-10-29T19:58:39.837Z,7.03
2022-10-29T20:01:08.542Z,7.07
2022-10-29T20:03:36.193Z,7.40
2022-10-29T20:06:02.639Z,7.45
2022-10-29T20:08:29.195Z,7.53
2022-10-29T20:10:59.870Z,8.48
2022-10-29T20:13:27.450Z,6.75
2022-10-29T20:15:54.509Z,7.55
2022-10-29T20:18:21.292Z,6.82
2022-10-29T20:20:54.401Z,7.57
2022-10-29T20:23:20.922Z,6.90
2022-10-29T20:25:47.333Z,6.80
2022-10-29T20:28:13.792Z,6.70
2022-10-29T20:30:40.182Z,7.18
2022-10-29T20:33:06.546Z,6.53
2022-10-29T20:35:32.939Z,6.50
2022-10-29T20:37:59.692Z,7.07
2022-10-29T20:40:26.485Z,7.40
2022-10-29T20:42:52.987Z,6.90
2022-10-29T20:45:19.799Z,7.03
2022-10-29T20:47:46.443Z,6.90
2022-10-29T20:50:13.170Z,6.63
2022-10-29T20:52:43.169Z,7.28
2022-10-29T20:55:12.214Z,7.20
2022-10-29T20:57:38.799Z,7.10
2022-10-29T21:00:06.128Z,6.70
2022-10-29T21:02:32.701Z,6.75
2022-10-29T21:04:59.340Z,7.05
2022-10-29T21:07:25.791Z,6.43
2022-10-29T21:09:52.198Z,6.57
2022-10-29T21:12:18.632Z,6.53
2022-10-29T21:14:45.005Z,6.38
2022-10-29T21:17:11.440Z,7.63
2022-10-29T21:19:37.962Z,6.47
2022-10-29T21:22:04.359Z,7.65
2022-10-29T21:24:30.808Z,6.25
2022-10-29T21:26:57.239Z,6.20
2022-10-29T21:29:23.665Z,6.72
2022-10-29T21:31:50.047Z,6.85
2022-10-29T21:34:16.499Z,6.80
2022-10-29T21:36:42.881Z,6.22
2022-10-29T21:39:09.423Z,6.50
2022-10-29T21:41:35.852Z,6.28
2022-10-29T21:44:02.211Z,6.07
2022-10-29T21:46:28.590Z,6.32
2022-10-29T21:48:56.191Z,6.32
2022-10-29T21:51:22.695Z,6.97
2022-10-29T21:53:49.145Z,7.50
2022-10-29T21:56:15.667Z,5.95
2022-10-29T21:58:42.713Z,6.88
2022-10-29T22:01:14.547Z,6.95
2022-10-29T22:03:42.174Z,6.53
2022-10-29T22:06:16.053Z,6.40
2022-10-29T22:08:43.118Z,6.65
2022-10-29T22:11:10.777Z,6.45
2022-10-29T22:13:37.396Z,6.50
2022-10-29T22:16:05.028Z,7.00
2022-10-29T22:18:31.944Z,7.47
2022-10-29T22:21:20.017Z,6.72
2022-10-29T22:23:49.069Z,6.68
2022-10-29T22:26:17.428Z,7.78
2022-10-29T22:28:44.092Z,6.57
2022-10-29T22:31:11.094Z,6.38
2022-10-29T22:33:37.657Z,6.95
2022-10-29T22:36:14.731Z,6.70
2022-10-29T22:38:41.769Z,6.57
2022-10-29T22:41:10.273Z,7.05
2022-10-29T22:43:37.272Z,7.78
2022-10-29T22:46:05.042Z,7.68
2022-10-29T22:48:31.520Z,8.70
2022-10-29T22:51:11.920Z,7.10
2022-10-29T22:53:38.569Z,7.65
2022-10-29T22:56:05.541Z,7.18
2022-10-29T22:58:31.934Z,6.35
2022-10-29T23:01:06.925Z,7.22
2022-10-29T23:03:34.420Z,6.45
2022-10-29T23:06:02.881Z,6.88
2022-10-29T23:08:29.468Z,7.50
2022-10-29T23:10:55.986Z,6.43
2022-10-29T23:13:22.409Z,7.22
2022-10-29T23:15:50.345Z,7.07
2022-10-29T23:18:16.771Z,6.85
2022-10-29T23:20:43.352Z,6.60
2022-10-29T23:23:10.189Z,6.65
2022-10-29T23:25:39.958Z,7.53
2022-10-29T23:28:06.373Z,7.50
2022-10-29T23:30:32.798Z,6.13
2022-10-29T23:33:00.390Z,7.05
2022-10-29T23:35:26.977Z,7.30
2022-10-29T23:37:53.433Z,7.10
2022-10-29T23:40:19.825Z,6.63
2022-10-29T23:42:46.274Z,6.63
2022-10-29T23:45:13.816Z,6.78
2022-10-29T23:47:40.196Z,6.40
2022-10-29T23:50:07.354Z,6.63
2022-10-29T23:52:33.809Z,6.45
2022-10-29T23:55:00.231Z,6.97
2022-10-29T23:57:26.617Z,6.47
2022-10-29T23:59:53.055Z,6.57
